sensor_id;sensor_type;location;lat;lon;timestamp;pressure;altitude;pressure_sealevel;temperature;humidity
11750;BME280;5932;42.656;23.236;2022-07-26T00:01:43;93485.00;;;21.54;68.27
11750;BME280;5932;42.656;23.236;2022-07-26T00:04:10;93492.28;;;21.57;68.32
11750;BME280;5932;42.656;23.236;2022-07-26T00:06:37;93487.31;;;21.61;68.78
11750;BME280;5932;42.656;23.236;2022-07-26T00:09:04;93482.34;;;21.65;68.06
11750;BME280;5932;42.656;23.236;2022-07-26T00:11:31;93485.38;;;21.67;66.00
11750;BME280;5932;42.656;23.236;2022-07-26T00:14:00;93496.34;;;21.62;67.36
11750;BME280;5932;42.656;23.236;2022-07-26T00:16:28;93490.56;;;21.60;67.50
11750;BME280;5932;42.656;23.236;2022-07-26T00:18:55;93489.06;;;21.59;68.07
11750;BME280;5932;42.656;23.236;2022-07-26T00:21:22;93491.81;;;21.59;68.20
11750;BME280;5932;42.656;23.236;2022-07-26T00:23:49;93487.75;;;21.54;67.18
11750;BME280;5932;42.656;23.236;2022-07-26T00:26:16;93482.75;;;21.53;66.47
11750;BME280;5932;42.656;23.236;2022-07-26T00:28:43;93477.09;;;21.42;66.49
11750;BME280;5932;42.656;23.236;2022-07-26T00:31:11;93476.22;;;21.30;67.00
11750;BME280;5932;42.656;23.236;2022-07-26T00:33:38;93482.16;;;21.23;67.67
11750;BME280;5932;42.656;23.236;2022-07-26T00:36:05;93462.81;;;21.17;68.28
11750;BME280;5932;42.656;23.236;2022-07-26T00:38:33;93479.13;;;21.21;68.79
11750;BME280;5932;42.656;23.236;2022-07-26T00:40:59;93477.63;;;21.20;68.67
11750;BME280;5932;42.656;23.236;2022-07-26T00:43:26;93471.59;;;21.16;69.31
11750;BME280;5932;42.656;23.236;2022-07-26T00:45:53;93462.97;;;21.08;69.36
11750;BME280;5932;42.656;23.236;2022-07-26T00:48:22;93479.28;;;21.12;68.59
11750;BME280;5932;42.656;23.236;2022-07-26T00:50:52;93470.22;;;21.06;69.08
11750;BME280;5932;42.656;23.236;2022-07-26T00:53:19;93468.69;;;21.05;69.45
11750;BME280;5932;42.656;23.236;2022-07-26T00:55:47;93470.25;;;21.11;69.56
11750;BME280;5932;42.656;23.236;2022-07-26T00:58:14;93436.66;;;20.87;69.27
11750;BME280;5932;42.656;23.236;2022-07-26T01:00:41;93467.09;;;20.98;69.17
11750;BME280;5932;42.656;23.236;2022-07-26T01:03:08;93466.94;;;20.87;69.24
11750;BME280;5932;42.656;23.236;2022-07-26T01:05:36;93471.22;;;20.88;69.98
11750;BME280;5932;42.656;23.236;2022-07-26T01:08:03;93474.03;;;20.94;70.13
11750;BME280;5932;42.656;23.236;2022-07-26T01:10:30;93474.09;;;20.99;70.01
11750;BME280;5932;42.656;23.236;2022-07-26T01:12:58;93465.66;;;20.83;70.75
11750;BME280;5932;42.656;23.236;2022-07-26T01:15:24;93470.66;;;20.84;70.40
11750;BME280;5932;42.656;23.236;2022-07-26T01:17:51;93476.66;;;20.83;70.85
11750;BME280;5932;42.656;23.236;2022-07-26T01:20:18;93480.28;;;20.74;71.67
11750;BME280;5932;42.656;23.236;2022-07-26T01:22:46;93472.91;;;20.66;71.68
11750;BME280;5932;42.656;23.236;2022-07-26T01:25:13;93474.72;;;20.69;71.63
11750;BME280;5932;42.656;23.236;2022-07-26T01:27:40;93470.03;;;20.55;71.28
11750;BME280;5932;42.656;23.236;2022-07-26T01:30:10;93464.94;;;20.48;71.61
11750;BME280;5932;42.656;23.236;2022-07-26T01:32:38;93472.44;;;20.47;71.98
11750;BME280;5932;42.656;23.236;2022-07-26T01:35:06;93464.16;;;20.47;71.59
11750;BME280;5932;42.656;23.236;2022-07-26T01:37:33;93456.19;;;20.49;72.08
11750;BME280;5932;42.656;23.236;2022-07-26T01:40:02;93462.19;;;20.48;70.80
11750;BME280;5932;42.656;23.236;2022-07-26T01:42:29;93455.34;;;20.43;72.50
11750;BME280;5932;42.656;23.236;2022-07-26T01:44:56;93445.22;;;20.34;73.43
11750;BME280;5932;42.656;23.236;2022-07-26T01:47:22;93455.06;;;20.41;73.00
11750;BME280;5932;42.656;23.236;2022-07-26T01:49:49;93460.44;;;20.30;73.70
11750;BME280;5932;42.656;23.236;2022-07-26T01:52:16;93463.47;;;20.17;73.05
11750;BME280;5932;42.656;23.236;2022-07-26T01:54:43;93460.34;;;20.10;73.91
11750;BME280;5932;42.656;23.236;2022-07-26T01:57:12;93466.41;;;20.14;74.61
11750;BME280;5932;42.656;23.236;2022-07-26T01:59:38;93460.91;;;20.14;74.90
11750;BME280;5932;42.656;23.236;2022-07-26T02:02:05;93473.69;;;20.17;74.43
11750;BME280;5932;42.656;23.236;2022-07-26T02:04:32;93468.41;;;20.13;74.86
11750;BME280;5932;42.656;23.236;2022-07-26T02:07:16;93474.78;;;20.19;74.56
11750;BME280;5932;42.656;23.236;2022-07-26T02:09:43;93467.47;;;20.16;74.66
11750;BME280;5932;42.656;23.236;2022-07-26T02:12:10;93471.63;;;20.12;74.74
11750;BME280;5932;42.656;23.236;2022-07-26T02:14:38;93469.16;;;20.14;75.38
11750;BME280;5932;42.656;23.236;2022-07-26T02:17:05;93469.09;;;20.08;74.87
11750;BME280;5932;42.656;23.236;2022-07-26T02:19:32;93473.91;;;20.13;74.99
11750;BME280;5932;42.656;23.236;2022-07-26T02:21:59;93468.22;;;20.02;75.06
11750;BME280;5932;42.656;23.236;2022-07-26T02:24:26;93469.84;;;19.94;75.16
11750;BME280;5932;42.656;23.236;2022-07-26T02:26:54;93465.13;;;19.95;74.76
11750;BME280;5932;42.656;23.236;2022-07-26T02:29:21;93472.13;;;19.96;74.95
11750;BME280;5932;42.656;23.236;2022-07-26T02:31:49;93482.09;;;19.93;75.20
11750;BME280;5932;42.656;23.236;2022-07-26T02:34:17;93474.66;;;19.99;75.14
11750;BME280;5932;42.656;23.236;2022-07-26T02:36:44;93481.69;;;20.00;75.01
11750;BME280;5932;42.656;23.236;2022-07-26T02:39:12;93479.16;;;19.97;74.76
11750;BME280;5932;42.656;23.236;2022-07-26T02:41:38;93480.38;;;19.96;74.90
11750;BME280;5932;42.656;23.236;2022-07-26T02:44:06;93478.50;;;19.87;75.28
11750;BME280;5932;42.656;23.236;2022-07-26T02:46:33;93486.47;;;19.85;75.39
11750;BME280;5932;42.656;23.236;2022-07-26T02:49:01;93487.88;;;19.81;75.34
11750;BME280;5932;42.656;23.236;2022-07-26T02:51:28;93493.00;;;19.73;75.91
11750;BME280;5932;42.656;23.236;2022-07-26T02:53:56;93488.00;;;19.72;75.91
11750;BME280;5932;42.656;23.236;2022-07-26T02:56:23;93482.94;;;19.70;75.90
11750;BME280;5932;42.656;23.236;2022-07-26T02:58:50;93484.09;;;19.64;76.20
11750;BME280;5932;42.656;23.236;2022-07-26T03:01:16;93485.69;;;19.56;76.71
11750;BME280;5932;42.656;23.236;2022-07-26T03:03:43;93469.56;;;19.48;77.04
11750;BME280;5932;42.656;23.236;2022-07-26T03:06:11;93488.16;;;19.53;77.14
11750;BME280;5932;42.656;23.236;2022-07-26T03:08:38;93486.91;;;19.54;77.35
11750;BME280;5932;42.656;23.236;2022-07-26T03:11:05;93490.63;;;19.51;77.59
11750;BME280;5932;42.656;23.236;2022-07-26T03:13:32;93490.72;;;19.57;77.47
11750;BME280;5932;42.656;23.236;2022-07-26T03:15:59;93486.72;;;19.43;78.19
11750;BME280;5932;42.656;23.236;2022-07-26T03:18:25;93495.25;;;19.45;78.45
11750;BME280;5932;42.656;23.236;2022-07-26T03:20:52;93485.38;;;19.39;78.20
11750;BME280;5932;42.656;23.236;2022-07-26T03:23:21;93495.75;;;19.44;78.36
11750;BME280;5932;42.656;23.236;2022-07-26T03:25:47;93494.22;;;19.43;78.73
11750;BME280;5932;42.656;23.236;2022-07-26T03:28:14;93500.84;;;19.36;78.97
11750;BME280;5932;42.656;23.236;2022-07-26T03:30:41;93508.66;;;19.29;79.65
11750;BME280;5932;42.656;23.236;2022-07-26T03:33:08;93507.56;;;19.35;79.61
11750;BME280;5932;42.656;23.236;2022-07-26T03:35:34;93491.06;;;19.35;79.66
11750;BME280;5932;42.656;23.236;2022-07-26T03:38:01;93496.84;;;19.37;79.22
11750;BME280;5932;42.656;23.236;2022-07-26T03:40:30;93492.81;;;19.24;79.52
11750;BME280;5932;42.656;23.236;2022-07-26T03:42:56;93488.94;;;19.16;80.82
11750;BME280;5932;42.656;23.236;2022-07-26T03:45:23;93495.56;;;19.24;80.57
11750;BME280;5932;42.656;23.236;2022-07-26T03:47:50;93503.00;;;19.32;80.77
11750;BME280;5932;42.656;23.236;2022-07-26T03:50:17;93503.00;;;19.32;80.14
11750;BME280;5932;42.656;23.236;2022-07-26T03:52:44;93496.56;;;19.35;79.85
11750;BME280;5932;42.656;23.236;2022-07-26T03:55:11;93489.84;;;19.36;80.31
11750;BME280;5932;42.656;23.236;2022-07-26T03:57:56;93490.44;;;19.40;80.14
11750;BME280;5932;42.656;23.236;2022-07-26T04:00:23;93485.69;;;19.41;79.09
11750;BME280;5932;42.656;23.236;2022-07-26T04:02:50;93476.94;;;19.28;79.21
11750;BME280;5932;42.656;23.236;2022-07-26T04:05:17;93484.25;;;19.31;80.06
11750;BME280;5932;42.656;23.236;2022-07-26T04:07:45;93490.44;;;19.40;80.86
11750;BME280;5932;42.656;23.236;2022-07-26T04:10:12;93490.44;;;19.55;80.12
11750;BME280;5932;42.656;23.236;2022-07-26T04:12:40;93486.38;;;19.65;79.41
11750;BME280;5932;42.656;23.236;2022-07-26T04:15:09;93497.34;;;19.65;79.34
11750;BME280;5932;42.656;23.236;2022-07-26T04:17:36;93495.38;;;19.66;79.34
11750;BME280;5932;42.656;23.236;2022-07-26T04:20:04;93486.44;;;19.71;78.87
11750;BME280;5932;42.656;23.236;2022-07-26T04:22:32;93487.50;;;19.73;79.40
11750;BME280;5932;42.656;23.236;2022-07-26T04:24:59;93475.56;;;19.76;79.96
11750;BME280;5932;42.656;23.236;2022-07-26T04:27:26;93482.00;;;19.88;79.18
11750;BME280;5932;42.656;23.236;2022-07-26T04:29:53;93478.78;;;19.89;79.72
11750;BME280;5932;42.656;23.236;2022-07-26T04:32:21;93469.97;;;19.85;79.51
11750;BME280;5932;42.656;23.236;2022-07-26T04:34:48;93476.19;;;20.00;79.21
11750;BME280;5932;42.656;23.236;2022-07-26T04:37:14;93471.34;;;20.10;80.34
11750;BME280;5932;42.656;23.236;2022-07-26T04:39:41;93477.59;;;20.25;78.29
11750;BME280;5932;42.656;23.236;2022-07-26T04:42:08;93480.25;;;20.34;77.84
11750;BME280;5932;42.656;23.236;2022-07-26T04:44:36;93477.97;;;20.32;78.21
11750;BME280;5932;42.656;23.236;2022-07-26T04:47:02;93486.09;;;20.42;77.76
11750;BME280;5932;42.656;23.236;2022-07-26T04:49:31;93483.22;;;20.51;77.91
11750;BME280;5932;42.656;23.236;2022-07-26T04:51:57;93481.38;;;20.62;77.95
11750;BME280;5932;42.656;23.236;2022-07-26T04:54:24;93482.34;;;20.79;79.05
11750;BME280;5932;42.656;23.236;2022-07-26T04:56:51;93493.09;;;20.97;77.73
11750;BME280;5932;42.656;23.236;2022-07-26T04:59:18;93488.50;;;21.09;76.79
11750;BME280;5932;42.656;23.236;2022-07-26T05:01:45;93483.41;;;21.22;76.62
11750;BME280;5932;42.656;23.236;2022-07-26T05:04:11;93483.53;;;21.33;75.39
11750;BME280;5932;42.656;23.236;2022-07-26T05:06:40;93478.28;;;21.35;75.34
11750;BME280;5932;42.656;23.236;2022-07-26T05:09:07;93484.34;;;21.39;75.56
11750;BME280;5932;42.656;23.236;2022-07-26T05:11:35;93478.63;;;21.43;75.74
11750;BME280;5932;42.656;23.236;2022-07-26T05:14:02;93481.72;;;21.50;74.71
11750;BME280;5932;42.656;23.236;2022-07-26T05:16:29;93468.19;;;21.52;75.07
11750;BME280;5932;42.656;23.236;2022-07-26T05:18:55;93470.31;;;21.63;74.36
11750;BME280;5932;42.656;23.236;2022-07-26T05:21:22;93472.09;;;21.66;74.77
11750;BME280;5932;42.656;23.236;2022-07-26T05:23:50;93472.66;;;21.75;74.53
11750;BME280;5932;42.656;23.236;2022-07-26T05:26:17;93478.59;;;21.88;74.26
11750;BME280;5932;42.656;23.236;2022-07-26T05:28:44;93481.72;;;22.01;73.41
11750;BME280;5932;42.656;23.236;2022-07-26T05:31:10;93483.78;;;22.12;70.86
11750;BME280;5932;42.656;23.236;2022-07-26T05:33:37;93482.28;;;22.11;70.11
11750;BME280;5932;42.656;23.236;2022-07-26T05:36:05;93478.28;;;22.12;70.36
11750;BME280;5932;42.656;23.236;2022-07-26T05:38:32;93479.88;;;22.24;70.59
11750;BME280;5932;42.656;23.236;2022-07-26T05:41:00;93486.06;;;22.45;70.03
11750;BME280;5932;42.656;23.236;2022-07-26T05:43:27;93479.88;;;22.61;70.04
11750;BME280;5932;42.656;23.236;2022-07-26T05:45:55;93472.41;;;22.72;70.63
11750;BME280;5932;42.656;23.236;2022-07-26T05:48:22;93478.28;;;22.85;70.19
11750;BME280;5932;42.656;23.236;2022-07-26T05:50:49;93475.56;;;22.96;69.74
11750;BME280;5932;42.656;23.236;2022-07-26T05:53:16;93468.81;;;23.03;70.92
11750;BME280;5932;42.656;23.236;2022-07-26T05:55:43;93477.91;;;23.15;69.87
11750;BME280;5932;42.656;23.236;2022-07-26T05:58:11;93471.66;;;23.25;68.40
11750;BME280;5932;42.656;23.236;2022-07-26T06:00:38;93471.97;;;23.33;68.05
11750;BME280;5932;42.656;23.236;2022-07-26T06:03:04;93468.97;;;23.42;67.57
11750;BME280;5932;42.656;23.236;2022-07-26T06:05:45;93467.44;;;23.35;67.29
11750;BME280;5932;42.656;23.236;2022-07-26T06:08:12;93462.69;;;23.41;67.18
11750;BME280;5932;42.656;23.236;2022-07-26T06:10:38;93459.19;;;23.46;67.83
11750;BME280;5932;42.656;23.236;2022-07-26T06:13:05;93459.94;;;23.52;67.50
11750;BME280;5932;42.656;23.236;2022-07-26T06:15:33;93461.97;;;23.68;66.52
11750;BME280;5932;42.656;23.236;2022-07-26T06:18:02;93454.94;;;23.67;67.25
11750;BME280;5932;42.656;23.236;2022-07-26T06:20:30;93449.94;;;23.82;67.09
11750;BME280;5932;42.656;23.236;2022-07-26T06:22:57;93444.41;;;23.88;66.43
11750;BME280;5932;42.656;23.236;2022-07-26T06:25:24;93449.69;;;23.92;66.52
11750;BME280;5932;42.656;23.236;2022-07-26T06:27:51;93455.72;;;24.01;66.17
11750;BME280;5932;42.656;23.236;2022-07-26T06:30:18;93450.22;;;24.12;66.35
11750;BME280;5932;42.656;23.236;2022-07-26T06:32:46;93447.97;;;24.22;65.41
11750;BME280;5932;42.656;23.236;2022-07-26T06:35:13;93446.44;;;24.32;64.88
11750;BME280;5932;42.656;23.236;2022-07-26T06:37:41;93446.44;;;24.32;65.02
11750;BME280;5932;42.656;23.236;2022-07-26T06:40:09;93443.16;;;24.33;65.35
11750;BME280;5932;42.656;23.236;2022-07-26T06:42:37;93447.44;;;24.45;65.55
11750;BME280;5932;42.656;23.236;2022-07-26T06:45:05;93449.16;;;24.54;65.89
11750;BME280;5932;42.656;23.236;2022-07-26T06:47:32;93442.63;;;24.57;64.05
11750;BME280;5932;42.656;23.236;2022-07-26T06:50:01;93449.13;;;24.70;63.43
11750;BME280;5932;42.656;23.236;2022-07-26T06:52:28;93453.69;;;24.73;64.25
11750;BME280;5932;42.656;23.236;2022-07-26T06:54:57;93448.34;;;24.81;64.51
11750;BME280;5932;42.656;23.236;2022-07-26T06:57:23;93445.09;;;24.88;64.09
11750;BME280;5932;42.656;23.236;2022-07-26T06:59:50;93447.56;;;24.97;64.83
11750;BME280;5932;42.656;23.236;2022-07-26T07:02:17;93448.00;;;25.12;63.55
11750;BME280;5932;42.656;23.236;2022-07-26T07:04:44;93448.72;;;25.18;63.41
11750;BME280;5932;42.656;23.236;2022-07-26T07:07:12;93450.22;;;25.25;64.55
11750;BME280;5932;42.656;23.236;2022-07-26T07:09:39;93455.97;;;25.32;63.66
11750;BME280;5932;42.656;23.236;2022-07-26T07:12:06;93450.41;;;25.43;61.41
11750;BME280;5932;42.656;23.236;2022-07-26T07:14:33;93452.16;;;25.46;61.77
11750;BME280;5932;42.656;23.236;2022-07-26T07:17:00;93450.19;;;25.41;61.67
11750;BME280;5932;42.656;23.236;2022-07-26T07:19:27;93439.81;;;25.36;63.15
11750;BME280;5932;42.656;23.236;2022-07-26T07:21:53;93446.78;;;25.59;62.49
11750;BME280;5932;42.656;23.236;2022-07-26T07:24:21;93446.66;;;25.82;61.79
11750;BME280;5932;42.656;23.236;2022-07-26T07:26:49;93441.06;;;25.87;62.28
11750;BME280;5932;42.656;23.236;2022-07-26T07:29:15;93455.56;;;26.04;61.46
11750;BME280;5932;42.656;23.236;2022-07-26T07:31:44;93453.72;;;26.18;59.38
11750;BME280;5932;42.656;23.236;2022-07-26T07:34:12;93449.34;;;26.28;59.51
11750;BME280;5932;42.656;23.236;2022-07-26T07:36:39;93448.78;;;26.35;59.55
11750;BME280;5932;42.656;23.236;2022-07-26T07:39:06;93449.25;;;26.39;58.63
11750;BME280;5932;42.656;23.236;2022-07-26T07:41:34;93445.47;;;26.36;58.93
11750;BME280;5932;42.656;23.236;2022-07-26T07:44:02;93441.66;;;26.39;58.50
11750;BME280;5932;42.656;23.236;2022-07-26T07:46:29;93439.63;;;26.40;58.07
11750;BME280;5932;42.656;23.236;2022-07-26T07:48:56;93442.53;;;26.53;58.01
11750;BME280;5932;42.656;23.236;2022-07-26T07:51:24;93438.22;;;26.58;57.96
11750;BME280;5932;42.656;23.236;2022-07-26T07:53:51;93441.63;;;26.69;58.35
11750;BME280;5932;42.656;23.236;2022-07-26T07:56:17;93437.25;;;26.79;57.59
11750;BME280;5932;42.656;23.236;2022-07-26T07:58:46;93444.66;;;26.95;57.15
11750;BME280;5932;42.656;23.236;2022-07-26T08:01:12;93436.72;;;27.05;56.76
11750;BME280;5932;42.656;23.236;2022-07-26T08:03:39;93439.28;;;27.21;56.66
11750;BME280;5932;42.656;23.236;2022-07-26T08:06:07;93429.56;;;27.34;57.27
11750;BME280;5932;42.656;23.236;2022-07-26T08:08:35;93430.16;;;27.45;57.27
11750;BME280;5932;42.656;23.236;2022-07-26T08:11:02;93429.19;;;27.61;56.04
11750;BME280;5932;42.656;23.236;2022-07-26T08:13:29;93430.00;;;27.75;54.73
11750;BME280;5932;42.656;23.236;2022-07-26T08:15:58;93426.81;;;27.84;53.99
11750;BME280;5932;42.656;23.236;2022-07-26T08:18:24;93430.88;;;28.01;53.54
11750;BME280;5932;42.656;23.236;2022-07-26T08:20:52;93430.50;;;28.10;52.46
11750;BME280;5932;42.656;23.236;2022-07-26T08:23:20;93419.88;;;28.09;52.77
11750;BME280;5932;42.656;23.236;2022-07-26T08:25:47;93420.00;;;28.16;52.34
11750;BME280;5932;42.656;23.236;2022-07-26T08:28:14;93416.28;;;28.27;52.15
11750;BME280;5932;42.656;23.236;2022-07-26T08:30:41;93406.22;;;28.24;50.46
11750;BME280;5932;42.656;23.236;2022-07-26T08:33:10;93413.84;;;28.37;51.24
11750;BME280;5932;42.656;23.236;2022-07-26T08:35:36;93404.56;;;28.47;50.97
11750;BME280;5932;42.656;23.236;2022-07-26T08:38:03;93408.50;;;28.52;50.92
11750;BME280;5932;42.656;23.236;2022-07-26T08:40:31;93415.09;;;28.67;50.19
11750;BME280;5932;42.656;23.236;2022-07-26T08:42:58;93409.72;;;28.69;49.40
11750;BME280;5932;42.656;23.236;2022-07-26T08:45:28;93406.50;;;28.65;50.07
11750;BME280;5932;42.656;23.236;2022-07-26T08:47:56;93415.31;;;28.69;48.88
11750;BME280;5932;42.656;23.236;2022-07-26T08:50:25;93413.06;;;28.68;48.30
11750;BME280;5932;42.656;23.236;2022-07-26T08:52:54;93409.66;;;28.75;48.15
11750;BME280;5932;42.656;23.236;2022-07-26T08:55:21;93414.91;;;28.91;45.82
11750;BME280;5932;42.656;23.236;2022-07-26T08:57:48;93407.06;;;29.03;40.25
11750;BME280;5932;42.656;23.236;2022-07-26T09:00:16;93408.25;;;29.08;39.27
11750;BME280;5932;42.656;23.236;2022-07-26T09:02:44;93411.38;;;29.04;37.23
11750;BME280;5932;42.656;23.236;2022-07-26T09:05:11;93408.78;;;29.06;37.01
11750;BME280;5932;42.656;23.236;2022-07-26T09:07:40;93417.38;;;29.21;36.76
11750;BME280;5932;42.656;23.236;2022-07-26T09:10:08;93415.13;;;29.33;36.38
11750;BME280;5932;42.656;23.236;2022-07-26T09:12:36;93412.63;;;29.42;36.17
11750;BME280;5932;42.656;23.236;2022-07-26T09:15:05;93417.66;;;29.57;36.59
11750;BME280;5932;42.656;23.236;2022-07-26T09:17:40;93417.88;;;29.46;34.73
11750;BME280;5932;42.656;23.236;2022-07-26T09:20:08;93411.66;;;29.53;34.98
11750;BME280;5932;42.656;23.236;2022-07-26T09:22:36;93408.16;;;29.73;34.57
11750;BME280;5932;42.656;23.236;2022-07-26T09:25:18;93410.31;;;30.01;35.19
11750;BME280;5932;42.656;23.236;2022-07-26T09:27:46;93407.31;;;29.99;32.52
11750;BME280;5932;42.656;23.236;2022-07-26T09:30:15;93409.66;;;30.08;34.55
11750;BME280;5932;42.656;23.236;2022-07-26T09:32:54;93410.34;;;30.21;32.10
11750;BME280;5932;42.656;23.236;2022-07-26T09:35:21;93410.19;;;30.27;33.25
11750;BME280;5932;42.656;23.236;2022-07-26T09:37:48;93400.94;;;30.11;33.52
11750;BME280;5932;42.656;23.236;2022-07-26T09:40:17;93402.13;;;30.36;34.14
11750;BME280;5932;42.656;23.236;2022-07-26T09:42:55;93403.59;;;30.58;31.31
11750;BME280;5932;42.656;23.236;2022-07-26T09:45:23;93390.84;;;30.49;30.34
11750;BME280;5932;42.656;23.236;2022-07-26T09:47:50;93389.47;;;30.43;32.46
11750;BME280;5932;42.656;23.236;2022-07-26T09:50:19;93408.81;;;30.20;30.24
11750;BME280;5932;42.656;23.236;2022-07-26T09:53:00;93403.94;;;30.34;32.93
11750;BME280;5932;42.656;23.236;2022-07-26T09:55:29;93389.06;;;30.59;32.19
11750;BME280;5932;42.656;23.236;2022-07-26T09:57:58;93384.53;;;30.77;32.81
11750;BME280;5932;42.656;23.236;2022-07-26T10:00:28;93390.03;;;30.90;31.59
11750;BME280;5932;42.656;23.236;2022-07-26T10:02:55;93386.94;;;31.01;31.27
11750;BME280;5932;42.656;23.236;2022-07-26T10:05:23;93392.53;;;31.01;30.26
11750;BME280;5932;42.656;23.236;2022-07-26T10:07:50;93393.31;;;31.09;30.70
11750;BME280;5932;42.656;23.236;2022-07-26T10:10:21;93401.81;;;30.96;28.69
11750;BME280;5932;42.656;23.236;2022-07-26T10:12:51;93392.66;;;30.96;30.59
11750;BME280;5932;42.656;23.236;2022-07-26T10:15:33;93386.63;;;31.12;28.93
11750;BME280;5932;42.656;23.236;2022-07-26T10:18:00;93384.44;;;31.26;29.03
11750;BME280;5932;42.656;23.236;2022-07-26T10:20:46;93380.28;;;31.47;29.00
11750;BME280;5932;42.656;23.236;2022-07-26T10:23:34;93388.31;;;31.51;28.76
11750;BME280;5932;42.656;23.236;2022-07-26T10:26:03;93378.44;;;31.50;29.36
11750;BME280;5932;42.656;23.236;2022-07-26T10:28:33;93382.75;;;31.66;29.78
11750;BME280;5932;42.656;23.236;2022-07-26T10:31:26;93379.63;;;31.70;30.30
11750;BME280;5932;42.656;23.236;2022-07-26T10:33:56;93375.91;;;31.90;31.32
11750;BME280;5932;42.656;23.236;2022-07-26T10:36:25;93364.94;;;31.99;28.21
11750;BME280;5932;42.656;23.236;2022-07-26T10:39:14;93365.69;;;32.07;29.14
11750;BME280;5932;42.656;23.236;2022-07-26T10:41:43;93361.59;;;32.08;27.96
11750;BME280;5932;42.656;23.236;2022-07-26T10:44:20;93357.09;;;32.05;29.08
11750;BME280;5932;42.656;23.236;2022-07-26T10:46:59;93356.72;;;32.01;26.54
11750;BME280;5932;42.656;23.236;2022-07-26T10:49:30;93339.16;;;31.93;27.96
11750;BME280;5932;42.656;23.236;2022-07-26T10:52:08;93348.50;;;32.03;26.89
11750;BME280;5932;42.656;23.236;2022-07-26T10:55:03;93349.78;;;31.36;27.78
11750;BME280;5932;42.656;23.236;2022-07-26T10:57:32;93346.25;;;31.36;26.43
11750;BME280;5932;42.656;23.236;2022-07-26T11:00:01;93344.91;;;31.37;27.25
11750;BME280;5932;42.656;23.236;2022-07-26T11:02:30;93341.66;;;31.53;27.64
11750;BME280;5932;42.656;23.236;2022-07-26T11:04:58;93329.03;;;31.90;28.01
11750;BME280;5932;42.656;23.236;2022-07-26T11:07:26;93332.44;;;32.11;25.28
11750;BME280;5932;42.656;23.236;2022-07-26T11:09:54;93325.72;;;32.29;24.35
11750;BME280;5932;42.656;23.236;2022-07-26T11:12:21;93327.59;;;32.12;22.02
11750;BME280;5932;42.656;23.236;2022-07-26T11:14:48;93320.84;;;32.15;21.19
11750;BME280;5932;42.656;23.236;2022-07-26T11:17:23;93311.16;;;32.46;24.32
11750;BME280;5932;42.656;23.236;2022-07-26T11:19:50;93307.19;;;32.72;25.02
11750;BME280;5932;42.656;23.236;2022-07-26T11:22:17;93316.28;;;33.02;25.34
11750;BME280;5932;42.656;23.236;2022-07-26T11:24:45;93312.38;;;33.05;24.67
11750;BME280;5932;42.656;23.236;2022-07-26T11:27:12;93313.31;;;33.08;25.29
11750;BME280;5932;42.656;23.236;2022-07-26T11:29:39;93293.69;;;32.78;24.75
11750;BME280;5932;42.656;23.236;2022-07-26T11:32:07;93297.59;;;32.97;24.40
11750;BME280;5932;42.656;23.236;2022-07-26T11:34:41;93298.66;;;33.17;25.26
11750;BME280;5932;42.656;23.236;2022-07-26T11:37:09;93296.81;;;33.04;25.03
11750;BME280;5932;42.656;23.236;2022-07-26T11:39:36;93291.19;;;33.12;24.49
11750;BME280;5932;42.656;23.236;2022-07-26T11:42:05;93303.47;;;33.24;24.21
11750;BME280;5932;42.656;23.236;2022-07-26T11:44:33;93292.38;;;32.86;25.68
11750;BME280;5932;42.656;23.236;2022-07-26T11:47:09;93282.28;;;32.83;25.56
11750;BME280;5932;42.656;23.236;2022-07-26T11:49:37;93293.38;;;32.59;25.14
11750;BME280;5932;42.656;23.236;2022-07-26T11:52:05;93285.69;;;32.74;23.53
11750;BME280;5932;42.656;23.236;2022-07-26T11:54:41;93277.59;;;32.86;24.88
11750;BME280;5932;42.656;23.236;2022-07-26T11:57:08;93273.28;;;32.85;24.86
11750;BME280;5932;42.656;23.236;2022-07-26T11:59:37;93281.66;;;33.07;24.21
11750;BME280;5932;42.656;23.236;2022-07-26T12:02:05;93288.19;;;33.17;24.38
11750;BME280;5932;42.656;23.236;2022-07-26T12:04:33;93281.84;;;33.09;24.09
11750;BME280;5932;42.656;23.236;2022-07-26T12:07:09;93279.53;;;33.23;23.49
11750;BME280;5932;42.656;23.236;2022-07-26T12:09:38;93272.88;;;33.51;22.21
11750;BME280;5932;42.656;23.236;2022-07-26T12:12:07;93272.25;;;33.84;23.22
11750;BME280;5932;42.656;23.236;2022-07-26T12:14:36;93265.97;;;34.26;22.53
11750;BME280;5932;42.656;23.236;2022-07-26T12:17:11;93251.75;;;34.48;21.83
11750;BME280;5932;42.656;23.236;2022-07-26T12:19:38;93264.09;;;34.87;23.40
11750;BME280;5932;42.656;23.236;2022-07-26T12:22:10;93261.44;;;35.06;22.29
11750;BME280;5932;42.656;23.236;2022-07-26T12:24:43;93262.28;;;35.16;20.96
11750;BME280;5932;42.656;23.236;2022-07-26T12:27:13;93259.34;;;35.24;21.01
11750;BME280;5932;42.656;23.236;2022-07-26T12:29:41;93263.19;;;35.19;21.21
11750;BME280;5932;42.656;23.236;2022-07-26T12:32:11;93261.47;;;35.33;22.13
11750;BME280;5932;42.656;23.236;2022-07-26T12:34:39;93261.06;;;35.53;21.00
11750;BME280;5932;42.656;23.236;2022-07-26T12:37:13;93262.44;;;35.62;21.83
11750;BME280;5932;42.656;23.236;2022-07-26T12:39:41;93262.72;;;35.39;21.68
11750;BME280;5932;42.656;23.236;2022-07-26T12:42:26;93249.16;;;35.11;21.17
11750;BME280;5932;42.656;23.236;2022-07-26T12:44:53;93247.94;;;34.87;21.18
11750;BME280;5932;42.656;23.236;2022-07-26T12:47:20;93248.38;;;35.01;22.13
11750;BME280;5932;42.656;23.236;2022-07-26T12:49:47;93248.25;;;35.26;22.39
11750;BME280;5932;42.656;23.236;2022-07-26T12:52:17;93249.16;;;35.45;22.10
11750;BME280;5932;42.656;23.236;2022-07-26T12:54:46;93256.88;;;35.71;22.06
11750;BME280;5932;42.656;23.236;2022-07-26T12:57:13;93251.00;;;35.60;21.98
11750;BME280;5932;42.656;23.236;2022-07-26T12:59:41;93245.75;;;35.47;22.37
11750;BME280;5932;42.656;23.236;2022-07-26T13:02:08;93245.34;;;35.60;22.97
11750;BME280;5932;42.656;23.236;2022-07-26T13:04:35;93241.75;;;35.06;22.53
11750;BME280;5932;42.656;23.236;2022-07-26T13:07:03;93239.25;;;34.59;22.59